Time;durP1;ratioP1;P1;durP2;ratioP2;P2;SDS_P1;SDS_P2;PMS_P1;PMS_P2;Temp;Humidity;BMP_temperature;BMP_pressure;BME280_temperature;BME280_humidity;BME280_pressure;Samples;Min_cycle;Max_cycle;Signal;HPM_P1;HPM_P2
2023/07/26 02:02:24;;;;;;;7.50;3.62;;;;;;;;;;4313540;28;20411;-75
2023/07/26 02:04:51;;;;;;;3.10;2.40;;;;;;;;;;4281715;33;20037;-77
2023/07/26 02:07:17;;;;;;;4.65;2.37;;;;;;;;;;4270216;33;20050;-79
2023/07/26 02:09:43;;;;;;;2.60;2.03;;;;;;;;;;4265789;33;20084;-78
2023/07/26 02:12:09;;;;;;;10.15;2.55;;;;;;;;;;4267319;33;20054;-77
2023/07/26 02:14:35;;;;;;;3.42;2.30;;;;;;;;;;4267174;33;20083;-78
2023/07/26 02:17:01;;;;;;;3.00;2.47;;;;;;;;;;4272227;33;20075;-78
2023/07/26 02:19:28;;;;;;;5.32;2.97;;;;;;;;;;4282216;33;20106;-77
2023/07/26 02:21:55;;;;;;;4.37;2.20;;;;;;;;;;4250434;33;20125;-77
2023/07/26 02:24:21;;;;;;;5.43;2.70;;;;;;;;;;4250200;33;20123;-77
2023/07/26 02:26:47;;;;;;;6.00;2.30;;;;;;;;;;4250179;33;20158;-78
2023/07/26 02:29:14;;;;;;;4.65;3.60;;;;;;;;;;4250116;33;20058;-76
2023/07/26 02:31:40;;;;;;;5.00;2.55;;;;;;;;;;4240274;33;20147;-77
2023/07/26 02:34:06;;;;;;;10.57;4.65;;;;;;;;;;4237484;33;20038;-76
2023/07/26 02:36:33;;;;;;;2.70;2.50;;;;;;;;;;4238079;33;20088;-77
2023/07/26 02:38:59;;;;;;;11.20;3.62;;;;;;;;;;4251323;33;20049;-78
2023/07/26 02:41:25;;;;;;;21.17;2.70;;;;;;;;;;4251609;33;20102;-78
2023/07/26 02:43:52;;;;;;;7.05;2.50;;;;;;;;;;4250980;33;20041;-85
2023/07/26 02:46:18;;;;;;;4.32;2.72;;;;;;;;;;4234966;33;20161;-81
2023/07/26 02:48:44;;;;;;;11.80;2.72;;;;;;;;;;4237016;33;20035;-77
2023/07/26 02:51:10;;;;;;;3.47;2.28;;;;;;;;;;4222376;34;20078;-80
2023/07/26 02:53:37;;;;;;;4.03;2.97;;;;;;;;;;4243800;33;20029;-77
2023/07/26 02:56:03;;;;;;;6.65;3.45;;;;;;;;;;4250083;33;20026;-77
2023/07/26 02:58:30;;;;;;;5.03;2.60;;;;;;;;;;4221701;34;20047;-77
2023/07/26 03:00:56;;;;;;;9.35;3.10;;;;;;;;;;4212713;34;20382;-78
2023/07/26 03:03:22;;;;;;;5.40;2.72;;;;;;;;;;4208279;34;20079;-78
2023/07/26 03:05:58;;;;;;;7.05;2.58;;;;;;;;;;4219118;34;20084;-77
2023/07/26 03:08:25;;;;;;;7.07;3.10;;;;;;;;;;4221478;34;20051;-77
2023/07/26 03:10:51;;;;;;;9.25;3.35;;;;;;;;;;4221797;34;21056;-79
2023/07/26 03:13:17;;;;;;;4.68;3.28;;;;;;;;;;4221728;34;20538;-78
2023/07/26 03:15:44;;;;;;;4.95;3.45;;;;;;;;;;4222500;34;20027;-78
2023/07/26 03:18:11;;;;;;;5.47;3.12;;;;;;;;;;4194863;34;20052;-78
2023/07/26 03:20:37;;;;;;;14.20;4.32;;;;;;;;;;4193516;34;20417;-80
2023/07/26 03:23:03;;;;;;;18.02;5.03;;;;;;;;;;4177906;34;20070;-79
2023/07/26 03:25:30;;;;;;;4.00;3.62;;;;;;;;;;4167738;34;20060;-79
2023/07/26 03:27:56;;;;;;;6.05;3.80;;;;;;;;;;4166555;34;20084;-79
2023/07/26 03:30:22;;;;;;;13.30;4.60;;;;;;;;;;4190038;34;20077;-79
2023/07/26 03:32:48;;;;;;;7.72;3.80;;;;;;;;;;4193401;34;20073;-78
2023/07/26 03:35:15;;;;;;;8.82;3.55;;;;;;;;;;4195017;34;20036;-78
2023/07/26 03:37:41;;;;;;;9.68;3.90;;;;;;;;;;4165459;34;20345;-80
2023/07/26 03:40:07;;;;;;;8.07;3.78;;;;;;;;;;4197423;34;20096;-79
2023/07/26 03:42:33;;;;;;;6.50;4.62;;;;;;;;;;4207320;34;20124;-78
2023/07/26 03:44:59;;;;;;;4.00;3.45;;;;;;;;;;4208099;34;20134;-78
2023/07/26 03:47:26;;;;;;;6.93;3.78;;;;;;;;;;4208738;34;20072;-78
2023/07/26 03:49:52;;;;;;;8.43;3.80;;;;;;;;;;4215998;33;20043;-78
2023/07/26 03:52:18;;;;;;;4.95;3.17;;;;;;;;;;4207318;34;20086;-79
2023/07/26 03:54:45;;;;;;;14.02;3.62;;;;;;;;;;4219422;33;20050;-79
2023/07/26 03:57:11;;;;;;;8.77;3.40;;;;;;;;;;4235808;33;20039;-82
2023/07/26 03:59:37;;;;;;;10.45;3.97;;;;;;;;;;4235580;33;20031;-82
2023/07/26 04:02:03;;;;;;;7.03;3.58;;;;;;;;;;4235238;33;20087;-80
2023/07/26 04:04:29;;;;;;;5.68;3.47;;;;;;;;;;4236641;33;20042;-79
2023/07/26 04:06:56;;;;;;;13.18;3.55;;;;;;;;;;4234997;33;20454;-79
2023/07/26 04:09:22;;;;;;;30.52;4.57;;;;;;;;;;4246655;33;20090;-78
2023/07/26 04:11:52;;;;;;;6.30;4.12;;;;;;;;;;4262938;33;20045;-78
2023/07/26 04:14:18;;;;;;;10.15;4.32;;;;;;;;;;4272019;33;20041;-79
2023/07/26 04:16:44;;;;;;;7.60;3.50;;;;;;;;;;4278180;33;20058;-84
2023/07/26 04:19:10;;;;;;;5.60;3.45;;;;;;;;;;4280687;33;20045;-80
2023/07/26 04:21:37;;;;;;;5.87;4.00;;;;;;;;;;4268694;33;20104;-79
2023/07/26 04:24:03;;;;;;;8.35;4.03;;;;;;;;;;4280670;33;20057;-78
2023/07/26 04:26:29;;;;;;;6.82;3.95;;;;;;;;;;4235018;33;20435;-77
2023/07/26 04:29:02;;;;;;;7.53;3.72;;;;;;;;;;4235346;33;20034;-79
2023/07/26 04:31:28;;;;;;;4.32;3.85;;;;;;;;;;4234904;33;20097;-76
2023/07/26 04:33:54;;;;;;;4.72;3.90;;;;;;;;;;4234777;33;20409;-80
2023/07/26 04:36:20;;;;;;;9.13;3.78;;;;;;;;;;4231885;33;20051;-76
2023/07/26 04:38:46;;;;;;;6.22;3.75;;;;;;;;;;4228793;33;20077;-77
2023/07/26 04:41:13;;;;;;;13.13;4.32;;;;;;;;;;4222880;33;20085;-77
2023/07/26 04:43:39;;;;;;;5.43;4.65;;;;;;;;;;4234706;33;20457;-77
2023/07/26 04:46:05;;;;;;;8.75;3.70;;;;;;;;;;4235470;33;20323;-81
2023/07/26 04:48:35;;;;;;;5.93;4.10;;;;;;;;;;4220524;34;20125;-80
2023/07/26 04:51:02;;;;;;;9.63;5.15;;;;;;;;;;4221036;34;20605;-82
2023/07/26 04:53:27;;;;;;;6.43;3.33;;;;;;;;;;4220015;34;20039;-84
2023/07/26 04:55:55;;;;;;;5.05;4.12;;;;;;;;;;4206034;34;20043;-83
2023/07/26 04:58:21;;;;;;;7.28;3.10;;;;;;;;;;4231100;33;20900;-81
2023/07/26 05:00:53;;;;;;;3.83;3.50;;;;;;;;;;4234402;33;20054;-80
2023/07/26 05:03:19;;;;;;;21.67;4.72;;;;;;;;;;4235097;33;20304;-82
2023/07/26 05:05:50;;;;;;;5.35;3.65;;;;;;;;;;4193266;34;20073;-81
2023/07/26 05:08:16;;;;;;;7.40;3.87;;;;;;;;;;4178619;34;20064;-88
2023/07/26 05:10:43;;;;;;;6.72;3.55;;;;;;;;;;4186656;34;20073;-83
2023/07/26 05:13:09;;;;;;;5.78;3.87;;;;;;;;;;4207934;34;20083;-83
2023/07/26 05:15:35;;;;;;;8.52;4.10;;;;;;;;;;4208606;34;20082;-79
2023/07/26 05:18:01;;;;;;;3.37;3.08;;;;;;;;;;4207634;34;20035;-83
2023/07/26 05:20:27;;;;;;;6.32;3.90;;;;;;;;;;4207701;34;20125;-82
2023/07/26 05:22:53;;;;;;;5.95;3.83;;;;;;;;;;4207210;34;20055;-83
2023/07/26 05:25:20;;;;;;;13.82;4.62;;;;;;;;;;4218816;34;20199;-81
2023/07/26 05:27:46;;;;;;;4.15;3.30;;;;;;;;;;4203110;34;20063;-82
2023/07/26 05:30:14;;;;;;;3.87;3.50;;;;;;;;;;4206007;34;20062;-82
2023/07/26 05:32:41;;;;;;;4.40;3.95;;;;;;;;;;4124575;34;20362;-84
2023/07/26 05:35:07;;;;;;;5.37;3.50;;;;;;;;;;4125176;34;20049;-81
2023/07/26 05:37:34;;;;;;;3.45;3.03;;;;;;;;;;4146481;34;20041;-80
2023/07/26 05:40:01;;;;;;;6.90;2.70;;;;;;;;;;4152511;34;20087;-83
2023/07/26 05:42:27;;;;;;;5.93;2.42;;;;;;;;;;4125838;34;20107;-81
2023/07/26 05:44:53;;;;;;;6.53;2.65;;;;;;;;;;4124604;34;20049;-81
2023/07/26 05:47:20;;;;;;;4.60;2.42;;;;;;;;;;4126888;34;20075;-79
2023/07/26 05:49:46;;;;;;;2.10;2.00;;;;;;;;;;4131583;34;20056;-82
2023/07/26 05:52:12;;;;;;;5.45;2.17;;;;;;;;;;4181556;34;20109;-82
2023/07/26 05:54:39;;;;;;;5.75;2.15;;;;;;;;;;4180766;34;20040;-81
2023/07/26 05:57:05;;;;;;;2.35;1.95;;;;;;;;;;4176209;34;20096;-81
2023/07/26 05:59:31;;;;;;;4.28;1.90;;;;;;;;;;4192383;34;20077;-82
2023/07/26 06:02:01;;;;;;;4.32;2.17;;;;;;;;;;4181305;34;20065;-81
2023/07/26 06:04:30;;;;;;;3.58;2.25;;;;;;;;;;4204527;34;20084;-84
2023/07/26 06:06:56;;;;;;;2.15;1.92;;;;;;;;;;4214108;34;20043;-83
2023/07/26 06:09:22;;;;;;;4.53;2.03;;;;;;;;;;4207909;34;20216;-86
2023/07/26 06:11:49;;;;;;;5.15;1.90;;;;;;;;;;4207255;34;20090;-80
2023/07/26 06:14:15;;;;;;;3.72;1.85;;;;;;;;;;4222166;33;20073;-79
2023/07/26 06:16:42;;;;;;;2.35;1.48;;;;;;;;;;4222399;34;20028;-79
2023/07/26 06:19:09;;;;;;;1.77;1.40;;;;;;;;;;4210120;34;20149;-83
2023/07/26 06:21:35;;;;;;;1.35;1.25;;;;;;;;;;4222039;34;20046;-84
2023/07/26 06:24:01;;;;;;;6.30;1.50;;;;;;;;;;4231800;33;20058;-79
2023/07/26 06:26:28;;;;;;;4.80;1.70;;;;;;;;;;4223239;33;20854;-79
2023/07/26 06:28:56;;;;;;;3.53;1.65;;;;;;;;;;4235309;33;20041;-79
2023/07/26 06:31:31;;;;;;;4.18;1.40;;;;;;;;;;4236741;33;20473;-80
2023/07/26 06:33:58;;;;;;;4.97;1.40;;;;;;;;;;4221524;33;20047;-80
2023/07/26 06:36:26;;;;;;;5.75;1.48;;;;;;;;;;4214977;33;20043;-83
2023/07/26 06:38:53;;;;;;;6.65;1.90;;;;;;;;;;4205899;34;20051;-77
2023/07/26 06:41:19;;;;;;;4.20;1.67;;;;;;;;;;4205746;34;20124;-80
2023/07/26 06:43:46;;;;;;;7.30;1.98;;;;;;;;;;4186018;34;20066;-79
2023/07/26 06:46:12;;;;;;;3.35;1.52;;;;;;;;;;4196221;34;20052;-80
2023/07/26 06:48:38;;;;;;;7.20;1.55;;;;;;;;;;4195225;34;20079;-79
2023/07/26 06:51:04;;;;;;;3.00;1.67;;;;;;;;;;4194898;34;20262;-80
2023/07/26 06:53:31;;;;;;;4.45;1.52;;;;;;;;;;4193921;34;20056;-84
2023/07/26 06:55:58;;;;;;;5.47;1.80;;;;;;;;;;4178538;34;20203;-81
2023/07/26 06:58:24;;;;;;;1.75;1.30;;;;;;;;;;4178518;34;20051;-78
2023/07/26 07:00:51;;;;;;;5.35;1.92;;;;;;;;;;4152070;34;20098;-80
2023/07/26 07:03:18;;;;;;;3.62;1.50;;;;;;;;;;4152501;34;20350;-78
2023/07/26 07:05:44;;;;;;;4.18;1.60;;;;;;;;;;4184452;34;20043;-80
2023/07/26 07:08:10;;;;;;;2.62;1.50;;;;;;;;;;4170831;34;20068;-78
2023/07/26 07:10:36;;;;;;;2.12;1.42;;;;;;;;;;4172404;34;20070;-79
2023/07/26 07:13:03;;;;;;;5.00;1.85;;;;;;;;;;4179101;34;20050;-80
2023/07/26 07:15:30;;;;;;;1.17;1.10;;;;;;;;;;4180439;34;20112;-79
2023/07/26 07:17:56;;;;;;;11.80;1.70;;;;;;;;;;4194397;34;20055;-76
2023/07/26 07:20:22;;;;;;;3.90;1.37;;;;;;;;;;4190286;34;20070;-79
2023/07/26 07:22:52;;;;;;;1.62;1.12;;;;;;;;;;4180939;34;20087;-79
2023/07/26 07:25:18;;;;;;;3.03;1.65;;;;;;;;;;4189355;34;20044;-81
2023/07/26 07:27:44;;;;;;;4.93;1.65;;;;;;;;;;4191430;34;20048;-85
2023/07/26 07:30:10;;;;;;;5.25;2.22;;;;;;;;;;4193421;34;20043;-78
2023/07/26 07:32:43;;;;;;;2.85;1.42;;;;;;;;;;4211750;33;20088;-79
2023/07/26 07:35:09;;;;;;;1.67;1.00;;;;;;;;;;4207895;34;20110;-80
2023/07/26 07:37:35;;;;;;;1.52;1.00;;;;;;;;;;4213026;34;20516;-79
2023/07/26 07:40:03;;;;;;;1.00;0.80;;;;;;;;;;4240127;33;20174;-80
2023/07/26 07:42:32;;;;;;;2.47;1.12;;;;;;;;;;4207738;34;20133;-79
2023/07/26 07:44:58;;;;;;;4.18;0.90;;;;;;;;;;4193470;34;20094;-79
2023/07/26 07:47:24;;;;;;;2.20;0.70;;;;;;;;;;4185436;34;20051;-80
2023/07/26 07:49:51;;;;;;;4.22;0.93;;;;;;;;;;4210289;34;20373;-85
2023/07/26 07:52:17;;;;;;;1.98;1.48;;;;;;;;;;4217370;33;20323;-81
2023/07/26 07:54:43;;;;;;;2.00;1.10;;;;;;;;;;4219547;34;20781;-81
2023/07/26 07:57:09;;;;;;;1.87;1.20;;;;;;;;;;4219616;34;20046;-82
2023/07/26 07:59:36;;;;;;;2.47;0.80;;;;;;;;;;4220887;34;20059;-83
2023/07/26 08:02:02;;;;;;;1.95;1.10;;;;;;;;;;4222748;34;20073;-89
2023/07/26 08:04:28;;;;;;;1.23;1.12;;;;;;;;;;4207057;34;20055;-75
2023/07/26 08:06:54;;;;;;;3.33;1.00;;;;;;;;;;4204955;34;20068;-78
2023/07/26 08:09:20;;;;;;;3.60;1.33;;;;;;;;;;4165557;34;20032;-79
2023/07/26 08:11:47;;;;;;;3.97;1.00;;;;;;;;;;4166487;34;20087;-79
2023/07/26 08:14:13;;;;;;;2.28;1.00;;;;;;;;;;4175801;34;20068;-78
2023/07/26 08:16:39;;;;;;;0.65;0.62;;;;;;;;;;4191017;34;20081;-77
2023/07/26 08:19:05;;;;;;;1.83;1.10;;;;;;;;;;4193742;34;20056;-78
2023/07/26 08:21:31;;;;;;;2.87;1.30;;;;;;;;;;4193449;34;20086;-76
2023/07/26 08:23:57;;;;;;;3.05;1.40;;;;;;;;;;4193439;34;20043;-78
2023/07/26 08:26:24;;;;;;;2.25;0.75;;;;;;;;;;4193678;34;20391;-80
2023/07/26 08:28:50;;;;;;;2.72;1.10;;;;;;;;;;4191243;34;20047;-78
2023/07/26 08:31:17;;;;;;;0.80;0.60;;;;;;;;;;4201130;34;20082;-78
2023/07/26 08:33:43;;;;;;;2.97;0.90;;;;;;;;;;4206573;34;20067;-79
2023/07/26 08:36:09;;;;;;;4.87;1.12;;;;;;;;;;4206111;34;20395;-79
2023/07/26 08:38:35;;;;;;;1.80;1.10;;;;;;;;;;4191895;34;20076;-78
2023/07/26 08:41:02;;;;;;;3.15;1.65;;;;;;;;;;4191097;34;20067;-78
2023/07/26 08:43:30;;;;;;;19.60;2.70;;;;;;;;;;4190450;34;20066;-80
2023/07/26 08:45:59;;;;;;;8.43;1.23;;;;;;;;;;4203075;34;20131;-77
2023/07/26 08:48:26;;;;;;;2.92;1.40;;;;;;;;;;4218109;33;20079;-78
2023/07/26 08:50:52;;;;;;;4.70;1.85;;;;;;;;;;4217225;33;20039;-77
2023/07/26 08:53:19;;;;;;;5.70;1.17;;;;;;;;;;4191194;34;20214;-78
2023/07/26 08:55:45;;;;;;;1.08;1.00;;;;;;;;;;4192153;34;20587;-78
2023/07/26 08:58:12;;;;;;;3.00;1.80;;;;;;;;;;4191368;34;20515;-78
2023/07/26 09:00:39;;;;;;;5.32;1.80;;;;;;;;;;4175456;34;20961;-80
2023/07/26 09:03:06;;;;;;;7.65;2.35;;;;;;;;;;4165489;34;20048;-78
2023/07/26 09:05:33;;;;;;;4.03;2.12;;;;;;;;;;4177861;34;20097;-78
2023/07/26 09:07:59;;;;;;;3.03;2.53;;;;;;;;;;4174007;34;20091;-78
2023/07/26 09:10:26;;;;;;;5.60;3.30;;;;;;;;;;4173134;34;20074;-78
2023/07/26 09:13:06;;;;;;;7.62;3.12;;;;;;;;;;4188299;34;20073;-77
2023/07/26 09:15:37;;;;;;;8.30;3.58;;;;;;;;;;4183833;34;20051;-82
2023/07/26 09:18:04;;;;;;;12.45;2.92;;;;;;;;;;4210060;33;20663;-80
2023/07/26 09:20:31;;;;;;;7.25;3.35;;;;;;;;;;4204781;34;20114;-78
2023/07/26 09:23:08;;;;;;;6.47;3.08;;;;;;;;;;4183258;34;20082;-79
2023/07/26 09:25:34;;;;;;;7.50;3.83;;;;;;;;;;4194866;34;20059;-79
2023/07/26 09:28:01;;;;;;;9.00;4.45;;;;;;;;;;4200220;34;20039;-81
2023/07/26 09:30:28;;;;;;;4.50;3.05;;;;;;;;;;4200165;34;20071;-79
2023/07/26 09:32:55;;;;;;;11.48;2.78;;;;;;;;;;4211356;34;20055;-84
2023/07/26 09:35:22;;;;;;;6.32;2.75;;;;;;;;;;4210591;34;20125;-80
2023/07/26 09:37:48;;;;;;;16.37;3.25;;;;;;;;;;4210525;34;20050;-79
2023/07/26 09:40:14;;;;;;;3.90;2.92;;;;;;;;;;4182961;34;20062;-80
2023/07/26 09:42:46;;;;;;;7.05;3.25;;;;;;;;;;4191741;34;20048;-78
2023/07/26 09:45:13;;;;;;;;;;;;;;;;;;4192642;34;20092;-79
2023/07/26 09:47:39;;;;;;;3.25;2.95;;;;;;;;;;4196661;34;19997;-78
2023/07/26 09:50:06;;;;;;;4.75;2.67;;;;;;;;;;4193437;34;20052;-79
2023/07/26 09:52:32;;;;;;;4.62;2.90;;;;;;;;;;4219074;34;20059;-76
2023/07/26 09:54:59;;;;;;;2.87;2.20;;;;;;;;;;4221928;34;20120;-79
2023/07/26 09:57:26;;;;;;;11.88;2.87;;;;;;;;;;4222002;34;20080;-79
2023/07/26 09:59:58;;;;;;;4.82;2.30;;;;;;;;;;4221800;34;20055;-78
2023/07/26 10:02:24;;;;;;;4.77;1.97;;;;;;;;;;4221540;34;20055;-79
2023/07/26 10:04:53;;;;;;;8.55;1.80;;;;;;;;;;4222545;34;20156;-79
2023/07/26 10:07:20;;;;;;;2.87;1.58;;;;;;;;;;4220642;34;20068;-82
2023/07/26 10:09:47;;;;;;;4.22;1.80;;;;;;;;;;4232791;33;20055;-80
2023/07/26 10:12:14;;;;;;;9.63;1.85;;;;;;;;;;4273578;33;20434;-80
2023/07/26 10:14:41;;;;;;;3.78;2.28;;;;;;;;;;4270035;33;20033;-79
2023/07/26 10:17:09;;;;;;;6.62;1.85;;;;;;;;;;4271655;33;20082;-79
2023/07/26 10:19:37;;;;;;;14.38;1.90;;;;;;;;;;4231033;33;20050;-80
2023/07/26 10:22:04;;;;;;;8.50;1.92;;;;;;;;;;4213104;34;20458;-80
2023/07/26 10:24:31;;;;;;;7.87;1.83;;;;;;;;;;4209502;34;20452;-83
2023/07/26 10:26:57;;;;;;;4.43;1.62;;;;;;;;;;4209031;34;20081;-79
2023/07/26 10:29:24;;;;;;;6.55;1.52;;;;;;;;;;4196672;34;20051;-79
2023/07/26 10:32:00;;;;;;;3.65;1.90;;;;;;;;;;4193371;34;20048;-78
2023/07/26 10:34:38;;;;;;;4.87;2.25;;;;;;;;;;4193405;34;20131;-83
2023/07/26 10:37:15;;;;;;;6.03;2.55;;;;;;;;;;4198590;34;20114;-81
2023/07/26 10:39:46;;;;;;;6.15;2.55;;;;;;;;;;4198052;34;20043;-78
2023/07/26 10:42:25;;;;;;;7.47;2.57;;;;;;;;;;4189762;34;20503;-79
2023/07/26 10:45:11;;;;;;;2.47;2.28;;;;;;;;;;4196296;34;20035;-83
2023/07/26 10:47:50;;;;;;;5.00;2.62;;;;;;;;;;4204256;34;20358;-80
2023/07/26 10:50:29;;;;;;;6.05;2.33;;;;;;;;;;4212670;33;20412;-77
2023/07/26 10:53:22;;;;;;;13.38;2.97;;;;;;;;;;4236826;33;20038;-77
2023/07/26 10:55:54;;;;;;;8.00;1.90;;;;;;;;;;4237010;33;20063;-78
2023/07/26 10:58:25;;;;;;;8.52;2.87;;;;;;;;;;4236966;33;20075;-79
2023/07/26 11:01:04;;;;;;;5.35;2.55;;;;;;;;;;4403722;28;20162;-80
2023/07/26 11:03:37;;;;;;;4.22;2.70;;;;;;;;;;4273028;33;20054;-79
2023/07/26 11:06:15;;;;;;;;;;;;;;;;;;4273913;33;20054;-77
2023/07/26 11:08:46;;;;;;;10.18;2.95;;;;;;;;;;4266762;33;19951;-79
2023/07/26 11:11:19;;;;;;;5.37;2.75;;;;;;;;;;4272061;33;20075;-78
2023/07/26 11:13:51;;;;;;;4.32;2.53;;;;;;;;;;4274899;33;20081;-78
2023/07/26 11:16:26;;;;;;;7.18;2.83;;;;;;;;;;4270606;33;20060;-79
2023/07/26 11:18:55;;;;;;;8.52;2.87;;;;;;;;;;4272347;33;20037;-79
2023/07/26 11:21:29;;;;;;;;;;;;;;;;;;4277118;33;20041;-79
2023/07/26 11:24:00;;;;;;;6.57;3.78;;;;;;;;;;4277611;33;19963;-80
2023/07/26 11:26:41;;;;;;;10.00;3.37;;;;;;;;;;4269011;33;20207;-84
2023/07/26 11:29:23;;;;;;;5.82;2.72;;;;;;;;;;4278522;33;20053;-82
2023/07/26 11:31:54;;;;;;;4.20;2.97;;;;;;;;;;4277136;33;20038;-81
2023/07/26 11:34:22;;;;;;;4.18;2.90;;;;;;;;;;4276083;33;20061;-81
2023/07/26 11:36:55;;;;;;;7.62;3.35;;;;;;;;;;4276980;33;20037;-79
2023/07/26 11:39:24;;;;;;;3.30;3.00;;;;;;;;;;4295101;33;20238;-79
2023/07/26 11:41:52;;;;;;;3.15;2.78;;;;;;;;;;4297592;33;20181;-81
2023/07/26 11:44:19;;;;;;;4.93;2.80;;;;;;;;;;4295774;33;20114;-80
2023/07/26 11:46:46;;;;;;;6.35;3.25;;;;;;;;;;4299752;33;20052;-77
2023/07/26 11:49:22;;;;;;;6.60;3.10;;;;;;;;;;4286287;33;20180;-80
2023/07/26 11:51:49;;;;;;;6.82;3.42;;;;;;;;;;4287023;33;20068;-78
2023/07/26 11:54:16;;;;;;;9.68;3.17;;;;;;;;;;4284754;33;20041;-79
2023/07/26 11:56:43;;;;;;;7.15;2.70;;;;;;;;;;4297954;33;20493;-76
2023/07/26 11:59:10;;;;;;;3.03;2.33;;;;;;;;;;4298526;33;20108;-75
2023/07/26 12:01:37;;;;;;;4.18;2.12;;;;;;;;;;4282998;33;20530;-76
2023/07/26 12:04:08;;;;;;;4.10;2.47;;;;;;;;;;4275178;33;20029;-76
2023/07/26 12:06:35;;;;;;;6.03;2.33;;;;;;;;;;4273574;33;20070;-76
2023/07/26 12:09:11;;;;;;;7.97;2.20;;;;;;;;;;4266163;33;20530;-85
2023/07/26 12:11:54;;;;;;;5.35;2.37;;;;;;;;;;4276069;33;20057;-79
2023/07/26 12:14:32;;;;;;;6.47;3.15;;;;;;;;;;4277539;33;20038;-79
2023/07/26 12:17:14;;;;;;;4.03;2.25;;;;;;;;;;4267600;33;20037;-81
2023/07/26 12:19:45;;;;;;;7.40;1.80;;;;;;;;;;4261662;33;20072;-80
2023/07/26 12:22:19;;;;;;;3.37;2.00;;;;;;;;;;4262509;33;20096;-78
2023/07/26 12:24:49;;;;;;;3.25;1.90;;;;;;;;;;4257256;33;20044;-78
2023/07/26 12:27:16;;;;;;;7.28;2.03;;;;;;;;;;4252374;33;20050;-80
2023/07/26 12:29:42;;;;;;;4.97;2.20;;;;;;;;;;4246563;33;20054;-82
2023/07/26 12:32:11;;;;;;;3.15;1.95;;;;;;;;;;4246727;33;20058;-77
2023/07/26 12:34:41;;;;;;;7.72;2.17;;;;;;;;;;4251888;33;20827;-78
2023/07/26 12:37:08;;;;;;;6.55;2.08;;;;;;;;;;4246085;33;20120;-78
2023/07/26 12:39:35;;;;;;;5.70;2.58;;;;;;;;;;4247382;33;20349;-79
2023/07/26 12:42:02;;;;;;;8.07;3.25;;;;;;;;;;4230553;33;20046;-81
2023/07/26 12:44:28;;;;;;;5.53;2.80;;;;;;;;;;4233959;33;20054;-80
2023/07/26 12:46:55;;;;;;;8.52;2.92;;;;;;;;;;4234142;33;20064;-78
2023/07/26 12:49:21;;;;;;;3.87;2.37;;;;;;;;;;4233852;33;20078;-79
2023/07/26 12:51:48;;;;;;;11.60;2.90;;;;;;;;;;4220430;34;20072;-79
2023/07/26 12:54:14;;;;;;;6.18;2.58;;;;;;;;;;4203474;34;20068;-80
2023/07/26 12:56:41;;;;;;;9.18;3.95;;;;;;;;;;4202776;34;20069;-80
2023/07/26 12:59:07;;;;;;;11.12;3.45;;;;;;;;;;4187315;34;20148;-80
2023/07/26 13:01:34;;;;;;;6.35;3.17;;;;;;;;;;4175038;34;20044;-79
2023/07/26 13:04:01;;;;;;;8.73;3.83;;;;;;;;;;4175080;34;20108;-80
2023/07/26 13:06:28;;;;;;;4.43;3.22;;;;;;;;;;4177420;34;20931;-79
2023/07/26 13:08:54;;;;;;;5.55;3.12;;;;;;;;;;4199119;34;20095;-80
2023/07/26 13:11:21;;;;;;;3.95;2.75;;;;;;;;;;4186640;34;20055;-81
2023/07/26 13:13:47;;;;;;;7.22;2.97;;;;;;;;;;4184479;34;20442;-80
2023/07/26 13:16:13;;;;;;;6.53;3.55;;;;;;;;;;4189581;34;20092;-82
2023/07/26 13:18:40;;;;;;;5.87;3.28;;;;;;;;;;4189298;34;20827;-81
2023/07/26 13:21:06;;;;;;;4.85;3.37;;;;;;;;;;4199476;34;20043;-80
2023/07/26 13:23:32;;;;;;;6.97;2.55;;;;;;;;;;4207150;34;20089;-82
2023/07/26 13:25:58;;;;;;;3.65;3.30;;;;;;;;;;4224871;33;20536;-86
2023/07/26 13:28:25;;;;;;;7.82;3.12;;;;;;;;;;4227928;33;20396;-87
2023/07/26 13:30:51;;;;;;;8.05;3.30;;;;;;;;;;4232865;33;20283;-79
2023/07/26 13:33:17;;;;;;;9.35;3.40;;;;;;;;;;4226547;33;20084;-77
2023/07/26 13:35:43;;;;;;;6.00;3.30;;;;;;;;;;4232646;33;20138;-84
2023/07/26 13:38:09;;;;;;;7.03;3.28;;;;;;;;;;4238409;33;20065;-85
2023/07/26 13:40:36;;;;;;;7.65;3.47;;;;;;;;;;4226675;33;20440;-80
2023/07/26 13:43:07;;;;;;;7.10;3.50;;;;;;;;;;4225349;33;20050;-78
2023/07/26 13:45:42;;;;;;;3.50;2.42;;;;;;;;;;4240769;33;20415;-80
2023/07/26 13:48:15;;;;;;;5.93;3.70;;;;;;;;;;4237277;33;20050;-82
2023/07/26 13:50:47;;;;;;;7.95;2.80;;;;;;;;;;4245931;33;20096;-80
2023/07/26 13:53:25;;;;;;;5.43;3.20;;;;;;;;;;4245920;33;20093;-81
2023/07/26 13:55:57;;;;;;;7.45;3.45;;;;;;;;;;4245102;33;20054;-84
2023/07/26 13:58:34;;;;;;;3.85;2.70;;;;;;;;;;4246574;33;20192;-78
2023/07/26 14:01:03;;;;;;;9.10;3.85;;;;;;;;;;4235842;33;20464;-79
2023/07/26 14:03:47;;;;;;;6.12;2.87;;;;;;;;;;4251008;33;20107;-79
2023/07/26 14:06:20;;;;;;;12.95;3.62;;;;;;;;;;4270721;33;20078;-79
2023/07/26 14:08:51;;;;;;;8.45;2.67;;;;;;;;;;4257901;33;20063;-84
2023/07/26 14:11:21;;;;;;;10.10;3.55;;;;;;;;;;4262823;33;20112;-87
2023/07/26 14:14:02;;;;;;;9.10;3.55;;;;;;;;;;4263559;33;20930;-81
2023/07/26 14:16:28;;;;;;;8.73;4.50;;;;;;;;;;4266053;33;20037;-81
2023/07/26 14:18:55;;;;;;;8.40;3.85;;;;;;;;;;4260090;33;20053;-81
2023/07/26 14:21:21;;;;;;;7.85;3.22;;;;;;;;;;4258875;33;20090;-82
2023/07/26 14:23:48;;;;;;;10.27;3.92;;;;;;;;;;4234542;33;20394;-81
2023/07/26 14:26:14;;;;;;;7.85;3.55;;;;;;;;;;4226226;33;20090;-81
2023/07/26 14:28:41;;;;;;;7.20;3.50;;;;;;;;;;4238336;33;20058;-81
2023/07/26 14:31:07;;;;;;;7.45;3.78;;;;;;;;;;4212985;34;20430;-82
2023/07/26 14:33:34;;;;;;;8.20;3.33;;;;;;;;;;4196498;34;20067;-88
2023/07/26 14:36:00;;;;;;;5.37;3.53;;;;;;;;;;4207815;34;20039;-80
2023/07/26 14:38:26;;;;;;;9.57;3.30;;;;;;;;;;4211816;34;20059;-80
2023/07/26 14:40:52;;;;;;;11.77;3.45;;;;;;;;;;4226473;33;20435;-79
2023/07/26 14:43:19;;;;;;;7.37;3.42;;;;;;;;;;4235844;33;20072;-79
2023/07/26 14:45:51;;;;;;;8.45;3.05;;;;;;;;;;4232482;33;20082;-83
2023/07/26 14:48:18;;;;;;;12.45;3.95;;;;;;;;;;4231103;33;20345;-79
2023/07/26 14:50:44;;;;;;;7.87;4.00;;;;;;;;;;4232557;33;20034;-80
2023/07/26 14:53:10;;;;;;;7.90;5.22;;;;;;;;;;4240202;33;20042;-83
2023/07/26 14:55:37;;;;;;;7.18;4.80;;;;;;;;;;4257489;33;20067;-79
2023/07/26 14:58:03;;;;;;;8.27;4.75;;;;;;;;;;4264684;33;20038;-88
2023/07/26 15:00:29;;;;;;;10.75;4.35;;;;;;;;;;4264517;33;20049;-79
2023/07/26 15:02:56;;;;;;;6.37;3.80;;;;;;;;;;4250841;33;20050;-80
2023/07/26 15:05:22;;;;;;;7.50;5.07;;;;;;;;;;4252503;33;20930;-78
2023/07/26 15:07:49;;;;;;;9.55;4.80;;;;;;;;;;4255948;33;20067;-78
2023/07/26 15:10:15;;;;;;;11.10;4.78;;;;;;;;;;4273994;33;20420;-89
2023/07/26 15:12:41;;;;;;;11.32;5.62;;;;;;;;;;4230409;33;20125;-82
2023/07/26 15:15:07;;;;;;;14.98;5.00;;;;;;;;;;4235803;33;20027;-79
2023/07/26 15:17:34;;;;;;;8.00;5.20;;;;;;;;;;4234807;33;20046;-79
2023/07/26 15:20:00;;;;;;;7.05;4.30;;;;;;;;;;4237057;33;20205;-79
2023/07/26 15:22:26;;;;;;;5.32;4.75;;;;;;;;;;4236816;33;20054;-83
2023/07/26 15:24:53;;;;;;;8.35;4.90;;;;;;;;;;4235823;33;20047;-80
2023/07/26 15:27:19;;;;;;;8.07;4.57;;;;;;;;;;4237110;33;20059;-80
2023/07/26 15:29:45;;;;;;;5.32;3.70;;;;;;;;;;4223015;33;20046;-76
2023/07/26 15:32:12;;;;;;;9.10;5.75;;;;;;;;;;4233229;33;20051;-80
2023/07/26 15:34:39;;;;;;;8.73;4.57;;;;;;;;;;4233633;33;20105;-89
2023/07/26 15:37:05;;;;;;;9.13;5.05;;;;;;;;;;4233976;33;20091;-79
2023/07/26 15:39:31;;;;;;;5.60;4.47;;;;;;;;;;4222474;33;20081;-80
2023/07/26 15:41:58;;;;;;;9.50;5.00;;;;;;;;;;4239875;33;20042;-80
2023/07/26 15:44:24;;;;;;;7.70;5.60;;;;;;;;;;4255793;33;20064;-80
2023/07/26 15:46:51;;;;;;;8.32;5.40;;;;;;;;;;4269886;33;20045;-79
2023/07/26 15:49:17;;;;;;;7.97;6.05;;;;;;;;;;4262024;33;20073;-81
2023/07/26 15:51:43;;;;;;;9.35;5.20;;;;;;;;;;4258574;33;20054;-80
2023/07/26 15:54:09;;;;;;;10.55;5.10;;;;;;;;;;4262321;33;20042;-79
2023/07/26 15:56:35;;;;;;;11.65;5.18;;;;;;;;;;4257721;33;20065;-79
2023/07/26 15:59:01;;;;;;;9.85;4.80;;;;;;;;;;4252854;33;20184;-81
2023/07/26 16:01:28;;;;;;;5.97;4.15;;;;;;;;;;4228101;33;20389;-79
2023/07/26 16:03:54;;;;;;;12.52;5.10;;;;;;;;;;4230004;33;20051;-80
2023/07/26 16:06:20;;;;;;;8.07;4.75;;;;;;;;;;4200240;34;20043;-77
2023/07/26 16:08:46;;;;;;;13.85;4.25;;;;;;;;;;4206918;34;20485;-79
2023/07/26 16:11:15;;;;;;;7.60;4.80;;;;;;;;;;4216260;33;20055;-80
2023/07/26 16:13:41;;;;;;;7.75;4.70;;;;;;;;;;4216727;33;20722;-78
2023/07/26 16:16:08;;;;;;;14.10;4.72;;;;;;;;;;4209801;33;20557;-79
2023/07/26 16:18:35;;;;;;;9.40;4.62;;;;;;;;;;4218879;33;20187;-78
2023/07/26 16:21:02;;;;;;;7.62;4.53;;;;;;;;;;4206966;33;20069;-79
2023/07/26 16:23:29;;;;;;;7.45;5.03;;;;;;;;;;4219272;33;20186;-78
2023/07/26 16:25:55;;;;;;;10.02;4.00;;;;;;;;;;4213210;33;20088;-78
2023/07/26 16:28:22;;;;;;;9.65;3.95;;;;;;;;;;4210634;33;20089;-76
2023/07/26 16:30:48;;;;;;;8.18;4.10;;;;;;;;;;4217204;33;20067;-78
2023/07/26 16:33:15;;;;;;;9.85;4.20;;;;;;;;;;4246137;33;20034;-76
2023/07/26 16:35:41;;;;;;;5.12;3.67;;;;;;;;;;4240644;33;20054;-77
2023/07/26 16:38:08;;;;;;;7.32;4.57;;;;;;;;;;4259196;33;20432;-77
2023/07/26 16:40:35;;;;;;;8.40;4.22;;;;;;;;;;4262164;33;20046;-77
2023/07/26 16:43:01;;;;;;;9.90;3.92;;;;;;;;;;4218922;33;20134;-78
2023/07/26 16:45:27;;;;;;;9.10;3.78;;;;;;;;;;4218141;33;20636;-77
2023/07/26 16:47:54;;;;;;;12.95;7.28;;;;;;;;;;4217368;33;20144;-78